Time,TemperatureF,DewpointF,PressureIn,WindDirection,WindDirectionDegrees,WindSpeedMPH,WindSpeedGustMPH,Humidity,HourlyPrecipIn,Conditions,Clouds,dailyrainin,SoftwareType,DateUTC
2017-05-29 00:02:00,65.7,62.2,29.79,WSW,256,6.9,11.0,89,0.02,,,0.00,meteobridge,2017-05-29 04:02:00,
2017-05-29 00:07:00,65.5,62.4,29.80,WSW,256,10.1,10.1,90,0.02,,,0.00,meteobridge,2017-05-29 04:07:00,
2017-05-29 00:12:00,65.3,62.2,29.80,SW,233,6.9,13.0,90,0.02,,,0.00,meteobridge,2017-05-29 04:12:00,
2017-05-29 00:17:00,65.1,62.1,29.79,West,263,4.9,11.0,90,0.02,,,0.00,meteobridge,2017-05-29 04:17:00,
2017-05-29 00:22:00,64.9,61.9,29.79,WSW,243,8.9,10.0,90,0.02,,,0.00,meteobridge,2017-05-29 04:22:00,
2017-05-29 00:27:00,64.9,61.9,29.79,WSW,255,6.9,10.0,90,0.02,,,0.00,meteobridge,2017-05-29 04:27:00,
2017-05-29 00:32:00,64.8,61.7,29.79,SW,228,4.9,10.0,90,0.02,,,0.00,meteobridge,2017-05-29 04:32:00,
2017-05-29 00:38:00,64.6,61.5,29.80,WSW,247,6.0,10.0,90,0.02,,,0.00,meteobridge,2017-05-29 04:38:00,
2017-05-29 00:43:00,64.4,61.3,29.79,WSW,245,8.9,11.0,90,0.02,,,0.00,meteobridge,2017-05-29 04:43:00,
2017-05-29 00:48:00,64.2,61.2,29.78,SW,217,4.0,9.0,90,0.02,,,0.00,meteobridge,2017-05-29 04:48:00,
2017-05-29 00:53:00,64.2,61.2,29.77,WSW,251,6.0,7.0,90,0.01,,,0.00,meteobridge,2017-05-29 04:53:00,
2017-05-29 00:58:00,64.0,61.0,29.77,West,271,6.9,7.0,90,0.01,,,0.00,meteobridge,2017-05-29 04:58:00,
2017-05-29 01:03:00,64.0,61.0,29.77,WSW,255,8.9,9.0,90,0.00,,,0.00,meteobridge,2017-05-29 05:03:00,
2017-05-29 01:08:00,63.9,61.2,29.78,WSW,245,4.0,8.0,91,0.00,,,0.00,meteobridge,2017-05-29 05:08:00,
2017-05-29 01:13:00,63.9,61.2,29.78,WSW,243,8.1,8.1,91,0.00,,,0.00,meteobridge,2017-05-29 05:13:00,
2017-05-29 01:18:00,63.7,61.3,29.79,SW,235,6.0,8.0,92,0.00,,,0.00,meteobridge,2017-05-29 05:18:00,
2017-05-29 01:23:00,63.7,61.3,29.79,SW,236,6.0,8.0,92,0.00,,,0.00,meteobridge,2017-05-29 05:23:00,
2017-05-29 01:28:00,63.7,61.3,29.79,SW,230,4.9,6.0,92,0.00,,,0.00,meteobridge,2017-05-29 05:28:00,
2017-05-29 01:33:00,63.7,61.7,29.79,West,264,6.0,8.0,93,0.00,,,0.00,meteobridge,2017-05-29 05:33:00,
2017-05-29 01:38:00,63.5,61.5,29.80,WSW,240,8.1,10.0,93,0.00,,,0.00,meteobridge,2017-05-29 05:38:00,
2017-05-29 01:43:00,63.5,61.5,29.80,WSW,242,6.0,9.0,93,0.00,,,0.00,meteobridge,2017-05-29 05:43:00,
2017-05-29 01:49:00,63.3,61.5,29.80,WSW,252,10.1,10.1,94,0.00,,,0.00,meteobridge,2017-05-29 05:49:00,
2017-05-29 01:54:00,63.3,61.5,29.80,WSW,252,8.9,10.0,94,0.00,,,0.00,meteobridge,2017-05-29 05:54:00,
2017-05-29 01:59:00,63.3,61.5,29.80,WSW,244,6.0,9.0,94,0.00,,,0.00,meteobridge,2017-05-29 05:59:00,
2017-05-29 02:04:00,63.3,61.5,29.80,WSW,243,8.9,10.0,94,0.00,,,0.00,meteobridge,2017-05-29 06:04:00,
2017-05-29 02:09:00,63.1,61.3,29.81,West,262,8.9,10.0,94,0.00,,,0.00,meteobridge,2017-05-29 06:09:00,
2017-05-29 02:14:00,63.1,61.3,29.81,SW,229,6.0,11.0,94,0.00,,,0.00,meteobridge,2017-05-29 06:14:00,
2017-05-29 02:19:00,63.1,61.3,29.81,WSW,247,6.9,8.0,94,0.00,,,0.00,meteobridge,2017-05-29 06:19:00,
2017-05-29 02:24:00,63.1,61.7,29.81,WSW,252,6.0,12.0,95,0.00,,,0.00,meteobridge,2017-05-29 06:24:00,
2017-05-29 02:29:00,63.1,61.7,29.82,WSW,258,6.0,9.0,95,0.00,,,0.00,meteobridge,2017-05-29 06:29:00,
2017-05-29 02:34:00,63.3,61.9,29.82,WSW,246,6.0,11.0,95,0.00,,,0.00,meteobridge,2017-05-29 06:34:00,
2017-05-29 02:39:00,63.1,61.3,29.82,West,262,8.9,11.0,94,0.00,,,0.00,meteobridge,2017-05-29 06:39:00,
2017-05-29 02:44:00,63.1,61.3,29.82,WSW,243,8.1,12.0,94,0.00,,,0.00,meteobridge,2017-05-29 06:44:00,
2017-05-29 02:49:00,63.1,61.3,29.82,WSW,252,6.9,8.0,94,0.00,,,0.00,meteobridge,2017-05-29 06:49:00,
2017-05-29 02:54:00,63.0,61.2,29.82,WSW,251,6.0,7.0,94,0.00,,,0.00,meteobridge,2017-05-29 06:54:00,
2017-05-29 02:59:00,63.0,61.2,29.82,WSW,247,8.1,10.0,94,0.00,,,0.00,meteobridge,2017-05-29 06:59:00,
2017-05-29 03:05:00,62.8,61.0,29.82,WSW,251,4.0,8.0,94,0.00,,,0.00,meteobridge,2017-05-29 07:05:00,
2017-05-29 03:10:00,62.8,61.0,29.82,WSW,253,6.0,7.0,94,0.00,,,0.00,meteobridge,2017-05-29 07:10:00,
2017-05-29 03:15:00,62.6,60.8,29.82,WSW,248,4.0,7.0,94,0.00,,,0.00,meteobridge,2017-05-29 07:15:00,
2017-05-29 03:20:00,62.6,60.8,29.82,WSW,252,4.9,6.0,94,0.00,,,0.00,meteobridge,2017-05-29 07:20:00,
2017-05-29 03:25:00,62.4,61.0,29.82,SW,229,6.9,8.0,95,0.00,,,0.00,meteobridge,2017-05-29 07:25:00,
2017-05-29 03:30:00,62.4,61.0,29.82,SW,215,2.9,7.0,95,0.00,,,0.00,meteobridge,2017-05-29 07:30:00,
2017-05-29 03:35:00,62.4,61.0,29.82,SW,230,2.9,5.0,95,0.00,,,0.00,meteobridge,2017-05-29 07:35:00,
2017-05-29 03:40:00,62.2,60.8,29.81,WSW,247,4.0,4.0,95,0.00,,,0.00,meteobridge,2017-05-29 07:40:00,
2017-05-29 03:45:00,62.2,60.8,29.81,SW,234,2.9,4.0,95,0.00,,,0.00,meteobridge,2017-05-29 07:45:00,
2017-05-29 03:50:00,62.1,60.6,29.81,SW,234,4.0,5.0,95,0.00,,,0.00,meteobridge,2017-05-29 07:50:00,
2017-05-29 03:55:00,62.1,60.6,29.80,SW,225,2.9,4.0,95,0.00,,,0.00,meteobridge,2017-05-29 07:55:00,
2017-05-29 04:00:00,61.9,60.4,29.80,SW,234,2.0,3.0,95,0.00,,,0.00,meteobridge,2017-05-29 08:00:00,
2017-05-29 04:05:00,61.9,60.8,29.80,SW,229,4.0,6.0,96,0.00,,,0.00,meteobridge,2017-05-29 08:05:00,
2017-05-29 04:10:00,61.9,60.8,29.81,SW,220,6.0,7.0,96,0.00,,,0.00,meteobridge,2017-05-29 08:10:00,
2017-05-29 04:15:00,61.7,60.6,29.81,SW,224,4.0,6.0,96,0.00,,,0.00,meteobridge,2017-05-29 08:15:00,
2017-05-29 04:21:00,61.7,60.6,29.81,WSW,244,2.0,7.0,96,0.00,,,0.00,meteobridge,2017-05-29 08:21:00,
2017-05-29 04:26:00,61.5,60.4,29.81,SW,221,2.9,5.0,96,0.00,,,0.00,meteobridge,2017-05-29 08:26:00,
2017-05-29 04:31:00,61.5,60.4,29.81,West,260,2.9,4.0,96,0.00,,,0.00,meteobridge,2017-05-29 08:31:00,
2017-05-29 04:36:00,61.5,60.4,29.81,WSW,237,6.0,6.0,96,0.00,,,0.00,meteobridge,2017-05-29 08:36:00,
2017-05-29 04:41:00,61.3,60.3,29.82,WSW,247,4.9,6.0,96,0.00,,,0.00,meteobridge,2017-05-29 08:41:00,
2017-05-29 04:46:00,61.3,60.3,29.82,SW,221,4.9,5.0,96,0.00,,,0.00,meteobridge,2017-05-29 08:46:00,
2017-05-29 04:51:00,61.3,60.3,29.82,SSW,203,4.0,6.0,96,0.00,,,0.00,meteobridge,2017-05-29 08:51:00,
2017-05-29 04:56:00,61.5,60.4,29.82,SW,221,6.9,8.0,96,0.00,,,0.00,meteobridge,2017-05-29 08:56:00,
2017-05-29 05:01:00,61.3,60.3,29.83,SW,226,4.9,6.0,96,0.00,,,0.00,meteobridge,2017-05-29 09:01:00,
2017-05-29 05:06:00,61.3,60.3,29.82,SSW,202,4.9,7.0,96,0.00,,,0.00,meteobridge,2017-05-29 09:06:00,
2017-05-29 05:11:00,61.3,60.3,29.83,SW,225,6.9,10.0,96,0.00,,,0.00,meteobridge,2017-05-29 09:11:00,
2017-05-29 05:16:00,61.3,60.3,29.83,SW,214,2.9,8.0,96,0.00,,,0.00,meteobridge,2017-05-29 09:16:00,
2017-05-29 05:21:00,61.3,60.3,29.83,WSW,245,4.9,9.0,96,0.00,,,0.00,meteobridge,2017-05-29 09:21:00,
2017-05-29 05:26:00,61.3,60.3,29.83,WSW,253,4.9,8.0,96,0.00,,,0.00,meteobridge,2017-05-29 09:26:00,
2017-05-29 05:32:00,61.2,60.1,29.83,WSW,250,8.1,8.1,96,0.00,,,0.00,meteobridge,2017-05-29 09:32:00,
2017-05-29 05:37:00,61.2,60.1,29.83,West,269,4.9,7.0,96,0.00,,,0.00,meteobridge,2017-05-29 09:37:00,
2017-05-29 05:42:00,61.2,60.1,29.84,SW,214,4.9,9.0,96,0.00,,,0.00,meteobridge,2017-05-29 09:42:00,
2017-05-29 05:47:00,61.0,59.9,29.84,SW,226,2.9,8.0,96,0.00,,,0.00,meteobridge,2017-05-29 09:47:00,
2017-05-29 05:52:00,61.0,59.9,29.85,SW,234,6.0,8.0,96,0.00,,,0.00,meteobridge,2017-05-29 09:52:00,
2017-05-29 05:57:00,61.0,59.9,29.85,SW,231,6.0,9.0,96,0.00,,,0.00,meteobridge,2017-05-29 09:57:00,
2017-05-29 06:02:00,60.8,59.7,29.85,WSW,256,8.1,9.0,96,0.00,,,0.00,meteobridge,2017-05-29 10:02:00,
2017-05-29 06:07:00,60.8,59.7,29.85,SW,236,4.9,6.0,96,0.00,,,0.00,meteobridge,2017-05-29 10:07:00,
2017-05-29 06:12:00,60.6,59.5,29.85,SSW,210,8.1,10.0,96,0.00,,,0.00,meteobridge,2017-05-29 10:12:00,
2017-05-29 06:17:00,60.6,59.5,29.86,West,260,8.9,10.0,96,0.00,,,0.00,meteobridge,2017-05-29 10:17:00,
2017-05-29 06:22:00,60.6,59.5,29.86,SW,226,6.0,9.0,96,0.00,,,0.00,meteobridge,2017-05-29 10:22:00,
2017-05-29 06:27:00,60.6,59.5,29.86,SW,227,6.0,9.0,96,0.00,,,0.00,meteobridge,2017-05-29 10:27:00,
2017-05-29 06:32:00,60.4,59.4,29.86,SSW,212,6.0,9.0,96,0.00,,,0.00,meteobridge,2017-05-29 10:32:00,
2017-05-29 06:37:00,60.6,59.5,29.87,WSW,248,4.9,10.0,96,0.00,,,0.00,meteobridge,2017-05-29 10:37:00,
2017-05-29 06:42:00,60.6,59.5,29.87,WSW,245,4.9,9.0,96,0.00,,,0.00,meteobridge,2017-05-29 10:42:00,
2017-05-29 06:47:00,60.6,59.5,29.88,WSW,252,2.9,10.0,96,0.00,,,0.00,meteobridge,2017-05-29 10:47:00,
2017-05-29 06:53:00,60.8,59.7,29.88,WSW,245,8.9,9.0,96,0.00,,,0.00,meteobridge,2017-05-29 10:53:00,
2017-05-29 06:58:00,60.8,59.7,29.88,WSW,245,4.9,7.0,96,0.00,,,0.00,meteobridge,2017-05-29 10:58:00,
2017-05-29 07:03:00,61.0,59.9,29.88,SW,236,4.0,9.0,96,0.00,,,0.00,meteobridge,2017-05-29 11:03:00,
2017-05-29 07:08:00,61.2,60.1,29.89,WSW,254,2.9,10.0,96,0.00,,,0.00,meteobridge,2017-05-29 11:08:00,
2017-05-29 07:13:00,61.3,60.3,29.89,WSW,246,6.0,7.0,96,0.00,,,0.00,meteobridge,2017-05-29 11:13:00,
2017-05-29 07:18:00,61.5,60.4,29.89,WSW,257,4.9,8.0,96,0.00,,,0.00,meteobridge,2017-05-29 11:18:00,
2017-05-29 07:23:00,61.9,60.8,29.89,WSW,252,6.0,7.0,96,0.00,,,0.00,meteobridge,2017-05-29 11:23:00,
2017-05-29 07:28:00,62.1,61.0,29.89,WSW,247,6.9,7.0,96,0.00,,,0.00,meteobridge,2017-05-29 11:28:00,
2017-05-29 07:33:00,62.1,61.0,29.90,West,259,4.0,7.0,96,0.00,,,0.00,meteobridge,2017-05-29 11:33:00,
2017-05-29 07:38:00,62.2,60.8,29.89,WSW,240,4.0,8.0,95,0.00,,,0.00,meteobridge,2017-05-29 11:38:00,
2017-05-29 07:43:00,62.4,61.0,29.89,WSW,252,6.0,6.0,95,0.00,,,0.00,meteobridge,2017-05-29 11:43:00,
2017-05-29 07:48:00,62.8,61.3,29.89,SW,220,4.0,7.0,95,0.00,,,0.00,meteobridge,2017-05-29 11:48:00,
2017-05-29 07:53:00,63.0,61.5,29.89,WSW,255,4.9,6.0,95,0.00,,,0.00,meteobridge,2017-05-29 11:53:00,
2017-05-29 07:58:00,63.1,61.3,29.89,WSW,256,8.9,11.0,94,0.00,,,0.00,meteobridge,2017-05-29 11:58:00,
2017-05-29 08:03:00,63.3,61.3,29.89,WSW,253,4.9,8.0,93,0.00,,,0.00,meteobridge,2017-05-29 12:03:00,
2017-05-29 08:08:00,63.5,61.5,29.89,WSW,258,8.1,10.0,93,0.00,,,0.00,meteobridge,2017-05-29 12:08:00,
2017-05-29 08:14:00,63.7,61.7,29.89,WSW,252,4.0,9.0,93,0.00,,,0.00,meteobridge,2017-05-29 12:14:00,